WAT3537 MMUN-KBOS
Flight info
| Callsign | WAT3537 |
|---|---|
| Flight time | N/A |
| Altitude | 39000 |
| Route | OMSUK2A OMSUK UM219 MYDIA M219 CIGAR DCT KNOST DCT CAMJO Q109 TEEEM Q99 POLYY DCT DADDS Q87 GEARS DCT BBOBO Q22 RBV Q419 JFK ROBUC3 |
| Aircraft | B772/H-SDE2E3FGHIJ5LORVWXY/LB1D1 |
Departure
| Time | 2026-04-28 21:22 |
|---|---|
| Airport | Cancún International Airport (MMUN) |
Arrival
| Time | N/A |
|---|---|
| Airport | Boston Logan International Airport (KBOS) |
| Time | Latitude | Longitude | Altitude | Speed | Heading |
|---|---|---|---|---|---|
| 2026-04-28 20:57 | 21.03802 | -86.86613 | 33 ft | 0 kts | 304° |
| 2026-04-28 21:09 | 21.03798 | -86.86606 | 33 ft | 3 kts | 304° |
| 2026-04-28 21:09 | 21.03787 | -86.86588 | 32 ft | 3 kts | 304° |
| 2026-04-28 21:09 | 21.03778 | -86.86574 | 30 ft | 2 kts | 303° |
| 2026-04-28 21:10 | 21.03770 | -86.86557 | 32 ft | 3 kts | 271° |
| 2026-04-28 21:10 | 21.03774 | -86.86540 | 29 ft | 3 kts | 221° |
| 2026-04-28 21:10 | 21.03790 | -86.86527 | 29 ft | 2 kts | 212° |
| 2026-04-28 21:10 | 21.03798 | -86.86522 | 31 ft | 1 kts | 213° |
| 2026-04-28 21:11 | 21.03798 | -86.86521 | 31 ft | 0 kts | 213° |
| 2026-04-28 21:13 | 21.03793 | -86.86525 | 29 ft | 3 kts | 213° |
| 2026-04-28 21:13 | 21.03777 | -86.86536 | 31 ft | 3 kts | 213° |
| 2026-04-28 21:13 | 21.03761 | -86.86548 | 31 ft | 3 kts | 213° |
| 2026-04-28 21:13 | 21.03710 | -86.86584 | 33 ft | 12 kts | 213° |
| 2026-04-28 21:14 | 21.03641 | -86.86632 | 33 ft | 12 kts | 213° |
| 2026-04-28 21:14 | 21.03573 | -86.86679 | 33 ft | 12 kts | 214° |
| 2026-04-28 21:14 | 21.03494 | -86.86737 | 33 ft | 17 kts | 214° |
| 2026-04-28 21:14 | 21.03393 | -86.86809 | 34 ft | 17 kts | 214° |
| 2026-04-28 21:15 | 21.03349 | -86.86882 | 34 ft | 12 kts | 282° |
| 2026-04-28 21:15 | 21.03394 | -86.86969 | 34 ft | 17 kts | 303° |
| 2026-04-28 21:15 | 21.03462 | -86.87076 | 35 ft | 17 kts | 304° |
| 2026-04-28 21:15 | 21.03529 | -86.87183 | 35 ft | 17 kts | 304° |
| 2026-04-28 21:16 | 21.03596 | -86.87290 | 35 ft | 17 kts | 304° |
| 2026-04-28 21:16 | 21.03664 | -86.87398 | 36 ft | 17 kts | 303° |
| 2026-04-28 21:16 | 21.03730 | -86.87505 | 35 ft | 17 kts | 303° |
| 2026-04-28 21:16 | 21.03798 | -86.87614 | 35 ft | 17 kts | 303° |
| 2026-04-28 21:17 | 21.03865 | -86.87722 | 35 ft | 17 kts | 303° |
| 2026-04-28 21:17 | 21.03932 | -86.87829 | 35 ft | 17 kts | 303° |
| 2026-04-28 21:17 | 21.03999 | -86.87937 | 35 ft | 17 kts | 303° |
| 2026-04-28 21:17 | 21.04066 | -86.88042 | 35 ft | 17 kts | 304° |
| 2026-04-28 21:18 | 21.04133 | -86.88149 | 34 ft | 17 kts | 304° |
| 2026-04-28 21:18 | 21.04201 | -86.88256 | 35 ft | 17 kts | 304° |
| 2026-04-28 21:18 | 21.04268 | -86.88363 | 35 ft | 17 kts | 304° |
| 2026-04-28 21:18 | 21.04336 | -86.88470 | 35 ft | 17 kts | 303° |
| 2026-04-28 21:19 | 21.04403 | -86.88577 | 35 ft | 17 kts | 304° |
| 2026-04-28 21:19 | 21.04470 | -86.88685 | 35 ft | 17 kts | 304° |
| 2026-04-28 21:19 | 21.04537 | -86.88792 | 35 ft | 17 kts | 304° |
| 2026-04-28 21:19 | 21.04604 | -86.88899 | 35 ft | 17 kts | 304° |
| 2026-04-28 21:20 | 21.04639 | -86.88982 | 34 ft | 9 kts | 268° |
| 2026-04-28 21:20 | 21.04601 | -86.89031 | 35 ft | 9 kts | 216° |
| 2026-04-28 21:20 | 21.04550 | -86.89068 | 36 ft | 9 kts | 206° |
| 2026-04-28 21:20 | 21.04498 | -86.89042 | 36 ft | 9 kts | 127° |
| 2026-04-28 21:21 | 21.04461 | -86.88983 | 37 ft | 14 kts | 124° |
| 2026-04-28 21:21 | 21.04322 | -86.88760 | 39 ft | 69 kts | 124° |
| 2026-04-28 21:21 | 21.03901 | -86.88091 | 41 ft | 143 kts | 124° |
| 2026-04-28 21:21 | 21.03274 | -86.87109 | 558 ft | 159 kts | 124° |
| 2026-04-28 21:22 | 21.02662 | -86.86097 | 1354 ft | 167 kts | 122° |
| 2026-04-28 21:22 | 21.02038 | -86.85001 | 2073 ft | 180 kts | 121° |
| 2026-04-28 21:22 | 21.01330 | -86.83775 | 2370 ft | 208 kts | 121° |
| 2026-04-28 21:22 | 21.00798 | -86.82871 | 2596 ft | 222 kts | 121° |
| 2026-04-28 21:23 | 20.99604 | -86.80899 | 3221 ft | 246 kts | 121° |
| 2026-04-28 21:23 | 20.98673 | -86.79325 | 3890 ft | 251 kts | 116° |
| 2026-04-28 21:23 | 20.98284 | -86.77498 | 4477 ft | 259 kts | 86° |
| 2026-04-28 21:23 | 20.98781 | -86.75650 | 5277 ft | 263 kts | 62° |
| 2026-04-28 21:24 | 20.99985 | -86.74149 | 5989 ft | 272 kts | 37° |
| 2026-04-28 21:24 | 21.01731 | -86.73340 | 6720 ft | 278 kts | 11° |
| 2026-04-28 21:24 | 21.03674 | -86.73303 | 7426 ft | 282 kts | 355° |
| 2026-04-28 21:24 | 21.04957 | -86.73543 | 7886 ft | 284 kts | 348° |
| 2026-04-28 21:25 | 21.06854 | -86.74184 | 8595 ft | 288 kts | 340° |
| 2026-04-28 21:25 | 21.08658 | -86.75150 | 9283 ft | 292 kts | 330° |
| 2026-04-28 21:25 | 21.10310 | -86.76456 | 9918 ft | 297 kts | 321° |
| 2026-04-28 21:25 | 21.11812 | -86.78059 | 10293 ft | 305 kts | 320° |
| 2026-04-28 21:26 | 21.13676 | -86.79156 | 10397 ft | 316 kts | 350° |
| 2026-04-28 21:26 | 21.15852 | -86.79110 | 10666 ft | 321 kts | 14° |
| 2026-04-28 21:26 | 21.18063 | -86.78543 | 11041 ft | 332 kts | 14° |
| 2026-04-28 21:26 | 21.20329 | -86.78014 | 11788 ft | 335 kts | 13° |
| 2026-04-28 21:27 | 21.22619 | -86.77533 | 12740 ft | 335 kts | 11° |
| 2026-04-28 21:27 | 21.24920 | -86.77087 | 13640 ft | 337 kts | 10° |
| 2026-04-28 21:27 | 21.27244 | -86.76664 | 14420 ft | 341 kts | 10° |
| 2026-04-28 21:27 | 21.29598 | -86.76253 | 15226 ft | 343 kts | 9° |
| 2026-04-28 21:28 | 21.31964 | -86.75850 | 16073 ft | 345 kts | 9° |
| 2026-04-28 21:28 | 21.34341 | -86.75452 | 16910 ft | 347 kts | 9° |
| 2026-04-28 21:28 | 21.36737 | -86.75055 | 17738 ft | 350 kts | 9° |
| 2026-04-28 21:28 | 21.39153 | -86.74656 | 18509 ft | 353 kts | 9° |
| 2026-04-28 21:29 | 21.41591 | -86.74254 | 19173 ft | 356 kts | 9° |
| 2026-04-28 21:29 | 21.44055 | -86.73848 | 19825 ft | 360 kts | 9° |
| 2026-04-28 21:29 | 21.46545 | -86.73438 | 20478 ft | 363 kts | 9° |
| 2026-04-28 21:29 | 21.49054 | -86.73025 | 21132 ft | 366 kts | 8° |
| 2026-04-28 21:30 | 21.51592 | -86.72607 | 21770 ft | 369 kts | 8° |
| 2026-04-28 21:30 | 21.54144 | -86.72186 | 22378 ft | 373 kts | 8° |
| 2026-04-28 21:30 | 21.56720 | -86.71761 | 23004 ft | 376 kts | 8° |
| 2026-04-28 21:30 | 21.59319 | -86.71332 | 23614 ft | 380 kts | 8° |
| 2026-04-28 21:31 | 21.61943 | -86.70899 | 24118 ft | 383 kts | 8° |
| 2026-04-28 21:31 | 21.64588 | -86.70462 | 24629 ft | 386 kts | 8° |
| 2026-04-28 21:31 | 21.67259 | -86.70021 | 25148 ft | 389 kts | 8° |
| 2026-04-28 21:31 | 21.69943 | -86.69577 | 25669 ft | 392 kts | 7° |
| 2026-04-28 21:32 | 21.72647 | -86.69130 | 26188 ft | 395 kts | 7° |
| 2026-04-28 21:32 | 21.75379 | -86.68678 | 26705 ft | 398 kts | 7° |
| 2026-04-28 21:32 | 21.78133 | -86.68222 | 27198 ft | 402 kts | 7° |
| 2026-04-28 21:32 | 21.80879 | -86.67768 | 27688 ft | 406 kts | 7° |
| 2026-04-28 21:33 | 21.83683 | -86.67302 | 28196 ft | 409 kts | 8° |
| 2026-04-28 21:33 | 21.86485 | -86.66735 | 28703 ft | 412 kts | 10° |
| 2026-04-28 21:33 | 21.89307 | -86.66091 | 29205 ft | 416 kts | 10° |
| 2026-04-28 21:33 | 21.92143 | -86.65427 | 29711 ft | 419 kts | 11° |
| 2026-04-28 21:34 | 21.95005 | -86.64754 | 30179 ft | 422 kts | 11° |
| 2026-04-28 21:34 | 21.97891 | -86.64078 | 30592 ft | 425 kts | 11° |
| 2026-04-28 21:34 | 22.00788 | -86.63403 | 31029 ft | 427 kts | 11° |
| 2026-04-28 21:34 | 22.03703 | -86.62726 | 31416 ft | 430 kts | 11° |
| 2026-04-28 21:35 | 22.06644 | -86.62045 | 31807 ft | 433 kts | 10° |
| 2026-04-28 21:35 | 22.09593 | -86.61363 | 32201 ft | 435 kts | 10° |
| 2026-04-28 21:35 | 22.12561 | -86.60677 | 32614 ft | 436 kts | 10° |
| 2026-04-28 21:35 | 22.15498 | -86.59997 | 32971 ft | 438 kts | 10° |
| 2026-04-28 21:36 | 22.18492 | -86.59304 | 33286 ft | 441 kts | 10° |
| 2026-04-28 21:36 | 22.21509 | -86.58606 | 33579 ft | 444 kts | 10° |
| 2026-04-28 21:36 | 22.24533 | -86.57905 | 33934 ft | 445 kts | 10° |
| 2026-04-28 21:36 | 22.27554 | -86.57204 | 34331 ft | 443 kts | 10° |
| 2026-04-28 21:37 | 22.30577 | -86.56503 | 34675 ft | 444 kts | 10° |
| 2026-04-28 21:37 | 22.33620 | -86.55796 | 34759 ft | 451 kts | 10° |
| 2026-04-28 21:37 | 22.36695 | -86.55083 | 35003 ft | 453 kts | 10° |
| 2026-04-28 21:37 | 22.39780 | -86.54367 | 35355 ft | 452 kts | 10° |
| 2026-04-28 21:38 | 22.42856 | -86.53652 | 35728 ft | 451 kts | 9° |
| 2026-04-28 21:38 | 22.45919 | -86.52941 | 36139 ft | 449 kts | 9° |
| 2026-04-28 21:38 | 22.48935 | -86.52241 | 36455 ft | 450 kts | 9° |
| 2026-04-28 21:38 | 22.52005 | -86.51528 | 36733 ft | 451 kts | 9° |
| 2026-04-28 21:39 | 22.55075 | -86.50815 | 37025 ft | 451 kts | 9° |
| 2026-04-28 21:39 | 22.58148 | -86.50100 | 37338 ft | 452 kts | 9° |
| 2026-04-28 21:39 | 22.61216 | -86.49386 | 37639 ft | 452 kts | 9° |
| 2026-04-28 21:39 | 22.64289 | -86.48671 | 37935 ft | 452 kts | 9° |
| 2026-04-28 21:40 | 22.67369 | -86.47953 | 38206 ft | 452 kts | 9° |
| 2026-04-28 21:40 | 22.70450 | -86.47235 | 38492 ft | 452 kts | 9° |
| 2026-04-28 21:40 | 22.73530 | -86.46517 | 38762 ft | 453 kts | 9° |
| 2026-04-28 21:40 | 22.76608 | -86.45799 | 38962 ft | 454 kts | 9° |
| 2026-04-28 21:41 | 22.82585 | -86.44407 | 39024 ft | 458 kts | 9° |
| 2026-04-28 21:41 | 22.89099 | -86.42885 | 39025 ft | 450 kts | 9° |
| 2026-04-28 21:42 | 22.95212 | -86.41457 | 39039 ft | 449 kts | 9° |
| 2026-04-28 21:42 | 23.01315 | -86.40031 | 39039 ft | 448 kts | 9° |
| 2026-04-28 21:43 | 23.07377 | -86.38613 | 39054 ft | 448 kts | 8° |
| 2026-04-28 21:43 | 23.13477 | -86.37184 | 39043 ft | 448 kts | 8° |
| 2026-04-28 21:44 | 23.19579 | -86.35753 | 39049 ft | 448 kts | 8° |
| 2026-04-28 21:44 | 23.25682 | -86.34321 | 39049 ft | 448 kts | 8° |
| 2026-04-28 21:45 | 23.31785 | -86.32888 | 39044 ft | 448 kts | 8° |
| 2026-04-28 21:45 | 23.37888 | -86.31454 | 39048 ft | 448 kts | 8° |
| 2026-04-28 21:46 | 23.43981 | -86.30020 | 39058 ft | 447 kts | 8° |
| 2026-04-28 21:46 | 23.50024 | -86.28597 | 39048 ft | 446 kts | 8° |
| 2026-04-28 21:47 | 23.56093 | -86.27166 | 39053 ft | 445 kts | 8° |
| 2026-04-28 21:47 | 23.62143 | -86.25739 | 39052 ft | 444 kts | 8° |
| 2026-04-28 21:48 | 23.68177 | -86.24314 | 39056 ft | 443 kts | 8° |
| 2026-04-28 21:48 | 23.74195 | -86.22891 | 39069 ft | 442 kts | 8° |
| 2026-04-28 21:49 | 23.80192 | -86.21472 | 39057 ft | 441 kts | 8° |
| 2026-04-28 21:49 | 23.86183 | -86.20053 | 39062 ft | 440 kts | 8° |
| 2026-04-28 21:50 | 23.92164 | -86.18635 | 39062 ft | 439 kts | 8° |
| 2026-04-28 21:50 | 23.98152 | -86.17214 | 39061 ft | 441 kts | 8° |
| 2026-04-28 21:51 | 24.04092 | -86.15391 | 39087 ft | 448 kts | 17° |
| 2026-04-28 21:51 | 24.09769 | -86.12407 | 39076 ft | 456 kts | 25° |
| 2026-04-28 21:52 | 24.15299 | -86.08948 | 39072 ft | 459 kts | 25° |
| 2026-04-28 21:52 | 24.20845 | -86.05464 | 39069 ft | 460 kts | 25° |
| 2026-04-28 21:53 | 24.26406 | -86.01998 | 39067 ft | 460 kts | 25° |
| 2026-04-28 21:53 | 24.31975 | -85.98540 | 39067 ft | 459 kts | 25° |
| 2026-04-28 21:54 | 24.37485 | -85.95119 | 39077 ft | 458 kts | 25° |
| 2026-04-28 21:54 | 24.43021 | -85.91678 | 39071 ft | 456 kts | 25° |
| 2026-04-28 21:55 | 24.48537 | -85.88245 | 39075 ft | 455 kts | 25° |
| 2026-04-28 21:55 | 24.54039 | -85.84817 | 39075 ft | 454 kts | 25° |
| 2026-04-28 21:56 | 24.58637 | -85.81950 | 39076 ft | 453 kts | 25° |